Time;durP1;ratioP1;P1;durP2;ratioP2;P2;SDS_P1;SDS_P2;PMS_P1;PMS_P2;Temp;Humidity;BMP_temperature;BMP_pressure;BME280_temperature;BME280_humidity;BME280_pressure;Samples;Min_cycle;Max_cycle;Signal;HPM_P1;HPM_P2
2021/07/31 00:01:43;;;;;;;12.20;9.40;;;;;;;22.43;100.00;99637.92;1754845;80;20861;-64
2021/07/31 00:04:10;;;;;;;21.73;9.43;;;;;;;22.39;100.00;99636.89;1750472;80;21106;-62
2021/07/31 00:06:37;;;;;;;19.30;9.03;;;;;;;22.34;100.00;99638.23;1778698;80;21051;-61
2021/07/31 00:09:03;;;;;;;22.43;9.80;;;;;;;22.41;100.00;99636.06;1781572;80;22552;-63
2021/07/31 00:11:32;;;;;;;17.40;10.10;;;;;;;22.41;100.00;99636.06;1772241;80;21473;-64
2021/07/31 00:13:58;;;;;;;15.37;10.13;;;;;;;22.46;100.00;99632.03;1767215;80;21538;-63
2021/07/31 00:16:24;;;;;;;16.07;9.87;;;;;;;22.44;100.00;99634.19;1740840;80;20941;-63
2021/07/31 00:18:51;;;;;;;13.97;9.00;;;;;;;22.43;100.00;99629.95;1735649;80;21471;-61
2021/07/31 00:21:17;;;;;;;10.57;8.93;;;;;;;22.40;100.00;99638.47;1754631;80;21763;-64
2021/07/31 00:23:44;;;;;;;20.70;10.63;;;;;;;22.37;100.00;99633.70;1763437;80;21047;-63
2021/07/31 00:26:12;;;;;;;14.07;10.20;;;;;;;22.34;100.00;99635.58;1739673;80;21494;-63
2021/07/31 00:28:39;;;;;;;16.67;10.87;;;;;;;22.30;100.00;99631.89;1751272;80;20979;-61
2021/07/31 00:31:05;;;;;;;16.33;10.47;;;;;;;22.14;100.00;99631.73;1748242;80;20999;-60
2021/07/31 00:33:32;;;;;;;12.07;10.40;;;;;;;22.08;100.00;99633.58;1741784;80;21151;-64
2021/07/31 00:35:59;;;;;;;15.80;10.33;;;;;;;22.11;100.00;99637.80;1768922;80;20933;-64
2021/07/31 00:38:26;;;;;;;14.83;10.13;;;;;;;22.08;100.00;99633.58;1696906;82;21008;-64
2021/07/31 00:40:53;;;;;;;13.60;11.07;;;;;;;22.02;100.00;99638.13;1747774;80;21451;-64
2021/07/31 00:43:20;;;;;;;13.90;10.73;;;;;;;21.99;100.00;99637.34;1736560;80;21035;-63
2021/07/31 00:45:47;;;;;;;15.37;10.73;;;;;;;21.95;100.00;99633.66;1748031;80;21218;-63
2021/07/31 00:48:14;;;;;;;15.57;9.83;;;;;;;21.90;100.00;99636.34;1749454;79;20976;-65
2021/07/31 00:50:43;;;;;;;12.50;10.13;;;;;;;21.93;100.00;99644.27;1703562;82;20901;-65
2021/07/31 00:53:10;;;;;;;13.73;11.27;;;;;;;21.87;100.00;99642.19;1756899;79;21412;-64
2021/07/31 00:55:37;;;;;;;14.53;10.90;;;;;;;21.83;100.00;99639.83;1734558;80;21158;-64
2021/07/31 00:58:04;;;;;;;15.40;11.03;;;;;;;21.73;100.00;99638.53;1753776;80;21165;-64
2021/07/31 01:00:33;;;;;;;14.37;10.93;;;;;;;21.67;100.00;99632.97;1769420;80;20937;-65
2021/07/31 01:03:00;;;;;;;15.17;10.93;;;;;;;21.59;100.00;99632.50;1769158;80;20980;-61
2021/07/31 01:05:26;;;;;;;15.03;10.83;;;;;;;21.66;100.00;99634.05;1760198;80;22021;-63
2021/07/31 01:07:55;;;;;;;13.63;12.00;;;;;;;21.56;100.00;99634.89;1703300;82;21051;-64
2021/07/31 01:10:22;;;;;;;13.50;10.23;;;;;;;21.61;100.00;99636.98;1743367;80;21129;-64
2021/07/31 01:12:51;;;;;;;13.87;10.10;;;;;;;21.50;100.00;99634.09;1739212;80;20901;-64
2021/07/31 01:15:18;;;;;;;15.37;9.83;;;;;;;21.40;100.00;99639.42;1762417;80;21384;-63
2021/07/31 01:17:45;;;;;;;15.37;10.87;;;;;;;21.36;100.00;99637.05;1695428;82;21379;-64
2021/07/31 01:20:12;;;;;;;12.13;10.53;;;;;;;21.34;100.00;99640.52;1750104;79;21463;-64
2021/07/31 01:22:40;;;;;;;14.33;10.93;;;;;;;21.31;100.00;99644.46;1744119;80;21177;-64
2021/07/31 01:25:09;;;;;;;14.83;11.33;;;;;;;21.32;100.00;99634.11;1767821;80;20916;-63
2021/07/31 01:27:36;;;;;;;12.80;10.27;;;;;;;21.31;100.00;99637.05;1736801;80;20955;-63
2021/07/31 01:30:06;;;;;;;17.20;11.77;;;;;;;21.24;100.00;99640.50;1746197;80;22348;-63
2021/07/31 01:32:32;;;;;;;13.53;11.13;;;;;;;21.26;100.00;99643.69;1753431;80;20992;-63
2021/07/31 01:34:59;;;;;;;12.67;11.30;;;;;;;21.16;100.00;99637.86;1754361;80;21161;-62
2021/07/31 01:37:30;;;;;;;13.57;10.43;;;;;;;21.16;100.00;99637.86;1755270;80;20977;-60
2021/07/31 01:39:56;;;;;;;11.60;10.40;;;;;;;21.13;100.00;99636.53;1745995;80;21059;-63
2021/07/31 01:42:24;;;;;;;15.27;11.00;;;;;;;21.06;100.00;99643.99;1759167;80;21012;-63
2021/07/31 01:44:52;;;;;;;14.03;10.93;;;;;;;21.08;100.00;99641.06;1752211;80;20892;-63
2021/07/31 01:47:19;;;;;;;16.43;11.70;;;;;;;21.06;100.00;99640.02;1762986;80;21136;-61
2021/07/31 01:49:46;;;;;;;16.20;10.97;;;;;;;21.04;100.00;99636.83;1736128;80;20953;-63
2021/07/31 01:52:12;;;;;;;12.50;11.20;;;;;;;21.07;100.00;99639.48;1739489;80;21237;-63
2021/07/31 01:54:42;;;;;;;14.07;10.90;;;;;;;21.11;100.00;99643.19;1732991;82;20984;-63
2021/07/31 01:57:09;;;;;;;14.50;10.93;;;;;;;21.09;100.00;99647.41;1751746;80;21513;-62
2021/07/31 01:59:52;;;;;;;14.90;11.93;;;;;;;21.10;100.00;99637.09;1669589;85;21854;-64
2021/07/31 02:02:18;;;;;;;16.07;11.97;;;;;;;21.14;100.00;99645.30;1715122;80;21012;-63
2021/07/31 02:04:47;;;;;;;18.30;12.83;;;;;;;21.11;100.00;99644.51;1755951;80;20925;-63
2021/07/31 02:07:15;;;;;;;15.03;11.37;;;;;;;21.19;100.00;99651.13;1750365;80;20969;-60
2021/07/31 02:09:42;;;;;;;13.20;10.80;;;;;;;21.08;100.00;99653.78;1764113;80;21037;-63
2021/07/31 02:12:10;;;;;;;13.20;11.83;;;;;;;21.20;100.00;99651.37;1737318;80;22288;-63
2021/07/31 02:14:39;;;;;;;13.47;11.77;;;;;;;21.21;100.00;99663.56;1718955;82;21017;-63
2021/07/31 02:17:09;;;;;;;12.80;11.50;;;;;;;21.21;100.00;99667.53;1763726;80;20936;-60
2021/07/31 02:19:37;;;;;;;13.97;11.07;;;;;;;21.24;100.00;99662.50;1720679;82;21163;-63
2021/07/31 02:22:07;;;;;;;13.33;10.90;;;;;;;21.29;100.00;99666.98;1762447;80;21016;-64
2021/07/31 02:24:51;;;;;;;13.07;11.67;;;;;;;21.27;100.00;99672.57;1770265;79;21106;-61
2021/07/31 02:27:27;;;;;;;12.27;11.00;;;;;;;21.26;100.00;99672.31;1743622;80;21463;-63
2021/07/31 02:29:55;;;;;;;13.20;11.83;;;;;;;21.39;100.00;99672.31;1747023;80;21131;-63
2021/07/31 02:32:22;;;;;;;12.97;10.77;;;;;;;21.44;100.00;99671.50;1750693;80;20975;-63
2021/07/31 02:34:50;;;;;;;13.97;11.27;;;;;;;21.40;100.00;99673.89;1717986;82;21514;-60
2021/07/31 02:37:16;;;;;;;12.53;11.33;;;;;;;21.49;100.00;99679.46;1746244;80;22620;-63
2021/07/31 02:39:45;;;;;;;12.70;10.90;;;;;;;21.60;100.00;99683.67;1749952;80;20987;-63
2021/07/31 02:42:11;;;;;;;12.83;11.53;;;;;;;21.70;100.00;99684.16;1761782;80;20940;-63
2021/07/31 02:44:40;;;;;;;14.00;11.67;;;;;;;21.76;100.00;99680.44;1747970;80;20955;-63
2021/07/31 02:47:09;;;;;;;11.97;10.77;;;;;;;21.68;100.00;99687.63;1762742;80;21004;-63
2021/07/31 02:49:37;;;;;;;11.63;10.47;;;;;;;21.79;100.00;99693.17;1770729;80;22133;-64
2021/07/31 02:52:04;;;;;;;11.93;10.17;;;;;;;21.79;100.00;99693.17;1765422;80;21485;-63
2021/07/31 02:54:38;;;;;;;17.53;11.10;;;;;;;21.78;100.00;99699.52;1737366;80;21502;-63
2021/07/31 02:57:07;;;;;;;13.27;11.57;;;;;;;21.83;100.00;99699.52;1752728;80;20984;-63
2021/07/31 02:59:33;;;;;;;17.93;12.53;;;;;;;21.99;100.00;99706.34;1745352;80;21173;-65
2021/07/31 03:02:00;;;;;;;12.00;10.80;;;;;;;22.09;100.00;99706.31;1714549;79;21189;-63
2021/07/31 03:04:27;;;;;;;17.20;11.87;;;;;;;22.10;100.00;99705.78;1701824;84;21083;-65
2021/07/31 03:06:56;;;;;;;12.90;11.50;;;;;;;22.24;100.00;99711.33;1699550;84;20952;-60
2021/07/31 03:09:23;;;;;;;13.77;11.17;;;;;;;22.42;100.00;99712.00;1696159;84;21129;-62
2021/07/31 03:11:50;;;;;;;14.23;11.87;;;;;;;22.75;100.00;99715.78;1701957;84;20943;-61
2021/07/31 03:14:17;;;;;;;11.80;10.17;;;;;;;23.28;100.00;99711.13;1649304;85;21050;-63
2021/07/31 03:16:44;;;;;;;13.87;12.27;;;;;;;23.77;100.00;99708.26;1675282;84;20987;-60
2021/07/31 03:19:11;;;;;;;12.70;11.30;;;;;;;24.43;100.00;99702.64;1700804;84;21471;-63
2021/07/31 03:21:41;;;;;;;16.63;11.53;;;;;;;24.96;100.00;99702.40;1700699;84;21129;-65
2021/07/31 03:24:15;;;;;;;11.67;10.53;;;;;;;25.57;100.00;99698.41;1701434;84;21566;-64
2021/07/31 03:26:43;;;;;;;13.00;9.73;;;;;;;26.28;100.00;99694.30;1700293;84;21566;-61
2021/07/31 03:29:12;;;;;;;15.70;11.07;;;;;;;27.02;100.00;99690.48;1701323;84;21023;-63
2021/07/31 03:31:38;;;;;;;12.23;10.85;;;;;;;27.62;100.00;99687.31;1701657;84;21080;-64
2021/07/31 03:34:05;;;;;;;12.03;10.25;;;;;;;28.24;100.00;99680.98;1702171;84;21014;-64
2021/07/31 03:36:32;;;;;;;11.80;10.32;;;;;;;28.73;100.00;99682.41;1701975;83;21086;-62
2021/07/31 03:39:04;;;;;;;11.65;10.45;;;;;;;29.06;100.00;99680.01;1685952;84;21161;-61
2021/07/31 03:41:33;;;;;;;11.63;10.53;;;;;;;29.45;100.00;99675.43;1700814;84;21102;-64
2021/07/31 03:44:01;;;;;;;11.70;9.70;;;;;;;29.58;100.00;99668.28;1702358;83;20992;-64
2021/07/31 03:46:29;;;;;;;11.50;8.88;;;;;;;29.68;100.00;99676.53;1700185;84;20945;-63
2021/07/31 03:48:57;;;;;;;15.03;10.32;;;;;;;29.86;100.00;99674.54;1700567;84;21114;-61
2021/07/31 03:51:24;;;;;;;11.57;9.90;;;;;;;29.96;100.00;99670.11;1700822;84;21132;-63
2021/07/31 03:53:53;;;;;;;18.55;10.78;;;;;;;30.07;100.00;99673.98;1696928;84;21608;-64
2021/07/31 03:56:20;;;;;;;13.43;10.85;;;;;;;29.85;100.00;99677.76;1671552;84;21065;-63
2021/07/31 03:58:49;;;;;;;13.08;10.20;;;;;;;29.47;100.00;99680.47;1701440;83;21047;-64
2021/07/31 04:01:24;;;;;;;13.35;10.68;;;;;;;29.26;100.00;99678.52;1694643;83;21061;-64
2021/07/31 04:03:52;;;;;;;12.07;10.88;;;;;;;29.58;100.00;99673.65;1698761;83;21169;-64
2021/07/31 04:06:19;;;;;;;14.40;11.93;;;;;;;29.86;100.00;99673.98;1707006;83;21466;-62
2021/07/31 04:08:49;;;;;;;13.43;12.03;;;;;;;30.16;100.00;99678.78;1707766;83;21077;-64
2021/07/31 04:11:17;;;;;;;11.18;10.08;;;;;;;30.77;100.00;99677.71;1703468;83;21110;-66
2021/07/31 04:14:02;;;;;;;11.55;10.35;;;;;;;31.50;100.00;99674.34;1706975;83;21041;-64
2021/07/31 04:16:37;;;;;;;24.10;10.32;;;;;;;32.35;100.00;99670.48;1693706;83;22386;-62
2021/07/31 04:19:03;;;;;;;10.60;9.58;;;;;;;33.02;100.00;99668.84;1701214;83;21080;-64
2021/07/31 04:21:30;;;;;;;9.90;8.90;;;;;;;33.57;100.00;99669.03;1707004;83;20916;-64
2021/07/31 04:23:57;;;;;;;10.05;9.05;;;;;;;33.96;100.00;99663.11;1707317;82;21015;-64
2021/07/31 04:26:24;;;;;;;11.73;9.25;;;;;;;34.46;96.40;99671.46;1707267;83;21016;-65
2021/07/31 04:28:51;;;;;;;10.78;9.68;;;;;;;34.88;90.61;99674.18;1707432;83;21130;-62
2021/07/31 04:31:17;;;;;;;11.40;10.20;;;;;;;35.32;82.58;99675.13;1707044;83;21130;-65
2021/07/31 04:33:44;;;;;;;14.98;10.08;;;;;;;35.54;75.27;99668.91;1707548;83;22277;-64
2021/07/31 04:36:12;;;;;;;13.00;11.65;;;;;;;35.15;73.08;99671.55;1706798;83;20912;-62
2021/07/31 04:38:39;;;;;;;10.40;9.40;;;;;;;34.61;78.23;99672.75;1707505;83;22289;-64
2021/07/31 04:41:06;;;;;;;13.43;10.23;;;;;;;34.31;83.26;99682.58;1707127;83;22332;-61
2021/07/31 04:43:33;;;;;;;14.95;10.18;;;;;;;34.49;84.11;99678.33;1707320;83;20964;-63
2021/07/31 04:46:00;;;;;;;10.53;9.48;;;;;;;34.94;82.59;99680.87;1701670;83;21058;-60
2021/07/31 04:48:27;;;;;;;10.32;9.23;;;;;;;35.56;75.66;99681.52;1706310;82;20948;-63
2021/07/31 04:51:00;;;;;;;12.18;9.53;;;;;;;36.32;70.93;99679.21;1707538;83;21574;-62
2021/07/31 04:53:29;;;;;;;10.82;9.68;;;;;;;37.06;62.12;99677.09;1707356;82;21077;-61
2021/07/31 04:55:56;;;;;;;12.00;10.65;;;;;;;37.71;57.23;99669.58;1706453;83;20928;-60
2021/07/31 04:58:23;;;;;;;11.38;9.83;;;;;;;38.26;52.75;99680.91;1704928;83;21035;-61
2021/07/31 05:00:50;;;;;;;12.10;10.90;;;;;;;38.50;50.63;99670.52;1707486;83;21110;-61
2021/07/31 05:03:18;;;;;;;11.22;10.13;;;;;;;38.73;48.25;99675.02;1706720;82;21015;-60
2021/07/31 05:05:45;;;;;;;10.40;9.40;;;;;;;39.05;47.87;99675.63;1707542;83;21134;-61
2021/07/31 05:08:13;;;;;;;10.78;9.78;;;;;;;39.34;44.44;99681.87;1707174;83;21059;-62
2021/07/31 05:10:43;;;;;;;10.00;9.05;;;;;;;39.38;42.99;99679.33;1690518;83;20972;-62
2021/07/31 05:13:09;;;;;;;10.80;9.80;;;;;;;39.25;43.12;99677.39;1697535;83;21030;-60
2021/07/31 05:15:37;;;;;;;11.20;10.10;;;;;;;39.28;42.54;99677.39;1706381;82;21548;-62
2021/07/31 05:18:04;;;;;;;10.48;9.45;;;;;;;39.27;42.17;99679.16;1707236;82;22073;-62
2021/07/31 05:20:32;;;;;;;10.20;9.18;;;;;;;39.17;42.59;99679.31;1682254;83;21026;-62
2021/07/31 05:23:01;;;;;;;11.12;9.65;;;;;;;39.37;41.02;99683.83;1707428;83;21058;-62
2021/07/31 05:25:28;;;;;;;9.20;8.30;;;;;;;39.19;41.97;99682.44;1706347;83;20916;-62
2021/07/31 05:27:55;;;;;;;9.70;8.90;;;;;;;39.51;40.71;99685.73;1707690;83;21030;-62
2021/07/31 05:30:22;;;;;;;10.25;9.35;;;;;;;39.60;41.23;99695.66;1699438;83;22731;-62
2021/07/31 05:32:49;;;;;;;11.15;10.00;;;;;;;39.96;40.49;99688.74;1699989;83;21545;-62
2021/07/31 05:35:15;;;;;;;10.08;8.85;;;;;;;40.28;38.89;99692.14;1706396;83;21137;-61
2021/07/31 05:37:43;;;;;;;9.88;8.98;;;;;;;40.37;38.48;99695.80;1701701;83;21553;-62
2021/07/31 05:40:12;;;;;;;10.18;8.95;;;;;;;40.20;36.91;99698.82;1706633;83;21038;-62
2021/07/31 05:42:40;;;;;;;8.88;8.18;;;;;;;39.83;37.73;99696.59;1706260;83;21121;-61
2021/07/31 05:45:08;;;;;;;9.75;8.70;;;;;;;39.83;37.47;99698.73;1706535;83;21750;-62
2021/07/31 05:47:35;;;;;;;10.88;9.35;;;;;;;39.88;36.81;99699.69;1705715;83;21425;-61
2021/07/31 05:50:07;;;;;;;10.05;9.15;;;;;;;39.77;36.82;99698.94;1702827;83;21086;-61
2021/07/31 05:52:35;;;;;;;8.98;8.18;;;;;;;39.93;36.02;99705.34;1702864;83;20916;-61
2021/07/31 05:55:03;;;;;;;10.50;9.60;;;;;;;40.20;36.04;99704.88;1685283;83;22097;-61
2021/07/31 05:57:30;;;;;;;9.55;8.03;;;;;;;40.37;35.87;99702.63;1686216;83;21003;-62
2021/07/31 05:59:56;;;;;;;9.50;8.70;;;;;;;40.20;35.12;99706.23;1683979;83;21583;-62
2021/07/31 06:02:23;;;;;;;9.78;8.93;;;;;;;39.59;36.58;99709.09;1681246;83;21123;-61
2021/07/31 06:04:49;;;;;;;10.00;8.93;;;;;;;39.60;37.04;99707.34;1676624;84;21399;-61
2021/07/31 06:07:16;;;;;;;9.13;8.43;;;;;;;39.87;36.42;99702.82;1689392;84;22255;-61
2021/07/31 06:09:44;;;;;;;9.98;8.50;;;;;;;40.04;35.32;99704.69;1680988;84;21012;-61
2021/07/31 06:12:11;;;;;;;9.08;8.28;;;;;;;39.98;35.12;99703.56;1651464;85;21628;-62
2021/07/31 06:14:40;;;;;;;8.80;8.00;;;;;;;40.13;35.55;99705.08;1695538;84;21146;-62
2021/07/31 06:17:07;;;;;;;10.13;9.15;;;;;;;40.41;33.95;99708.84;1696425;84;20984;-63
2021/07/31 06:19:34;;;;;;;8.38;7.67;;;;;;;40.10;34.38;99712.66;1696492;84;21152;-62
2021/07/31 06:22:03;;;;;;;8.25;7.47;;;;;;;40.09;34.71;99713.08;1696850;84;21070;-62
2021/07/31 06:24:31;;;;;;;9.30;8.18;;;;;;;40.16;34.91;99711.72;1686837;84;21063;-62
2021/07/31 06:26:57;;;;;;;9.85;8.83;;;;;;;40.16;34.76;99714.45;1691367;84;21008;-63
2021/07/31 06:29:24;;;;;;;10.58;7.97;;;;;;;40.15;35.14;99715.59;1695982;84;21058;-62
2021/07/31 06:31:51;;;;;;;8.88;8.08;;;;;;;40.38;35.38;99718.59;1696525;84;21142;-62
2021/07/31 06:34:19;;;;;;;8.80;7.92;;;;;;;40.52;34.32;99713.66;1696960;84;21127;-62
2021/07/31 06:36:47;;;;;;;9.78;8.33;;;;;;;40.27;35.19;99715.17;1696386;84;20955;-62
2021/07/31 06:39:14;;;;;;;9.28;8.48;;;;;;;39.91;35.03;99716.45;1695986;84;21004;-62
2021/07/31 06:41:40;;;;;;;9.33;8.53;;;;;;;39.47;36.18;99718.46;1696344;84;21785;-62
2021/07/31 06:44:07;;;;;;;9.13;8.33;;;;;;;39.16;36.80;99720.80;1696162;84;21124;-62
2021/07/31 06:46:33;;;;;;;9.15;8.30;;;;;;;38.91;37.73;99717.30;1696464;84;20972;-62
2021/07/31 06:49:00;;;;;;;9.10;8.00;;;;;;;38.60;37.97;99720.89;1695598;84;20976;-62
2021/07/31 06:51:27;;;;;;;10.00;8.43;;;;;;;38.40;38.52;99725.91;1695884;84;21039;-62
2021/07/31 06:53:59;;;;;;;8.28;7.47;;;;;;;38.71;38.57;99720.92;1688884;84;21165;-62
2021/07/31 06:56:26;;;;;;;8.55;7.75;;;;;;;39.17;38.15;99719.65;1695724;84;21137;-62
2021/07/31 06:58:52;;;;;;;8.40;7.53;;;;;;;39.62;37.20;99726.03;1695955;84;21141;-62
2021/07/31 07:01:20;;;;;;;8.43;7.58;;;;;;;40.02;37.65;99722.06;1696188;84;20969;-61
2021/07/31 07:03:50;;;;;;;8.15;7.40;;;;;;;40.52;34.97;99719.12;1695515;83;20998;-62
2021/07/31 07:06:16;;;;;;;8.50;7.70;;;;;;;40.42;34.60;99727.36;1691839;84;21491;-61
2021/07/31 07:08:42;;;;;;;8.85;7.92;;;;;;;40.17;34.81;99727.50;1696307;84;21176;-61
2021/07/31 07:11:13;;;;;;;8.83;7.35;;;;;;;39.98;34.86;99728.13;1697111;84;21443;-60
2021/07/31 07:13:42;;;;;;;8.50;7.70;;;;;;;40.15;35.04;99723.78;1700057;83;21130;-61
2021/07/31 07:16:10;;;;;;;8.83;7.53;;;;;;;40.48;34.03;99717.00;1701590;83;21588;-60
2021/07/31 07:18:37;;;;;;;8.65;7.62;;;;;;;40.18;34.00;99723.00;1702437;83;21091;-61
2021/07/31 07:21:09;;;;;;;8.38;7.58;;;;;;;39.48;35.78;99728.22;1679226;84;21258;-61
2021/07/31 07:23:36;;;;;;;7.80;7.12;;;;;;;39.29;36.45;99725.91;1696548;84;21003;-62
2021/07/31 07:26:09;;;;;;;8.05;7.25;;;;;;;39.29;35.44;99728.63;1697208;84;20991;-63
2021/07/31 07:28:39;;;;;;;8.25;7.42;;;;;;;39.10;35.56;99725.69;1696494;84;21566;-60
2021/07/31 07:31:05;;;;;;;10.80;7.42;;;;;;;39.22;35.23;99719.84;1696217;84;21452;-61
2021/07/31 07:33:33;;;;;;;8.83;7.15;;;;;;;39.59;35.59;99722.16;1696345;84;22205;-61
2021/07/31 07:36:01;;;;;;;7.97;7.17;;;;;;;39.84;35.01;99725.44;1678896;84;21364;-64
2021/07/31 07:38:28;;;;;;;7.53;6.83;;;;;;;39.67;34.48;99725.66;1697279;84;20904;-62
2021/07/31 07:40:56;;;;;;;7.72;7.03;;;;;;;39.28;35.43;99721.02;1697146;84;20968;-60
2021/07/31 07:43:23;;;;;;;7.42;6.72;;;;;;;39.61;35.01;99727.22;1695245;84;21007;-61
2021/07/31 07:45:51;;;;;;;7.47;6.78;;;;;;;39.92;34.11;99725.59;1694518;84;22362;-62
2021/07/31 07:48:18;;;;;;;7.65;6.55;;;;;;;40.31;33.55;99729.58;1696415;84;21499;-64
2021/07/31 07:50:45;;;;;;;8.23;6.67;;;;;;;40.69;32.59;99722.95;1695899;84;21035;-62
2021/07/31 07:53:13;;;;;;;7.75;7.05;;;;;;;40.57;32.45;99735.11;1690175;84;21518;-61
2021/07/31 07:55:40;;;;;;;8.15;7.45;;;;;;;40.02;32.69;99725.39;1683909;84;21090;-61
2021/07/31 07:58:10;;;;;;;8.43;7.62;;;;;;;39.43;34.06;99731.33;1696767;84;21113;-62
2021/07/31 08:00:37;;;;;;;10.32;7.87;;;;;;;38.94;35.14;99741.03;1695304;84;22372;-63
2021/07/31 08:03:07;;;;;;;7.50;6.80;;;;;;;38.34;36.13;99739.72;1701606;83;20994;-62
2021/07/31 08:05:33;;;;;;;9.85;8.85;;;;;;;37.85;36.86;99732.81;1705291;83;21142;-62
2021/07/31 08:08:02;;;;;;;10.20;7.90;;;;;;;37.63;37.45;99733.84;1682671;83;21014;-64
2021/07/31 08:10:30;;;;;;;9.03;7.58;;;;;;;37.53;38.37;99729.88;1682972;83;21113;-64
2021/07/31 08:12:58;;;;;;;7.28;6.58;;;;;;;37.68;39.08;99728.04;1682707;83;20964;-63
2021/07/31 08:15:27;;;;;;;7.33;6.30;;;;;;;38.12;38.36;99729.28;1706428;83;21611;-62
2021/07/31 08:17:54;;;;;;;8.38;7.58;;;;;;;38.86;35.95;99727.20;1683503;83;21423;-63
2021/07/31 08:20:22;;;;;;;7.30;6.60;;;;;;;39.43;34.18;99722.38;1696398;83;21007;-62
2021/07/31 08:22:50;;;;;;;6.90;6.20;;;;;;;39.39;34.18;99721.78;1707228;83;21074;-63
2021/07/31 08:25:16;;;;;;;7.00;6.30;;;;;;;39.24;35.35;99725.69;1706440;83;21066;-62
2021/07/31 08:27:43;;;;;;;7.92;6.00;;;;;;;39.40;34.04;99723.36;1705912;83;21081;-63
2021/07/31 08:30:12;;;;;;;6.62;6.03;;;;;;;39.53;33.62;99720.22;1701017;83;21286;-63
2021/07/31 08:32:43;;;;;;;7.00;6.33;;;;;;;39.63;33.82;99725.66;1697140;83;20928;-62
2021/07/31 08:35:11;;;;;;;6.42;5.80;;;;;;;39.47;33.45;99723.14;1707795;83;21762;-63
2021/07/31 08:37:39;;;;;;;6.15;5.55;;;;;;;39.44;33.54;99726.64;1706519;83;21521;-62
2021/07/31 08:40:11;;;;;;;8.08;5.50;;;;;;;39.72;33.07;99729.36;1707407;83;21392;-62
2021/07/31 08:42:39;;;;;;;5.80;5.20;;;;;;;39.71;31.87;99730.55;1707214;83;21018;-62
2021/07/31 08:45:09;;;;;;;6.42;4.67;;;;;;;39.36;31.70;99727.23;1684323;83;21075;-63
2021/07/31 08:47:36;;;;;;;6.20;5.45;;;;;;;39.32;32.86;99724.52;1706769;83;21117;-62
2021/07/31 08:50:04;;;;;;;6.00;5.28;;;;;;;39.57;31.59;99723.12;1707504;83;22446;-63
2021/07/31 08:52:33;;;;;;;5.72;5.20;;;;;;;39.37;31.62;99722.00;1708082;83;21067;-63
2021/07/31 08:55:00;;;;;;;5.00;4.60;;;;;;;39.20;31.15;99717.30;1683601;83;21085;-63
2021/07/31 08:57:27;;;;;;;4.97;4.47;;;;;;;39.22;31.34;99726.66;1707852;83;21541;-62
2021/07/31 08:59:54;;;;;;;5.60;5.03;;;;;;;39.05;29.45;99713.78;1706908;83;21129;-66
2021/07/31 09:02:22;;;;;;;5.53;4.35;;;;;;;38.75;30.38;99723.06;1706950;83;21145;-62
2021/07/31 09:04:53;;;;;;;7.03;5.12;;;;;;;38.69;30.74;99715.88;1697074;83;21020;-62
2021/07/31 09:07:20;;;;;;;5.50;4.97;;;;;;;38.56;31.14;99720.11;1702285;84;20980;-62
2021/07/31 09:09:46;;;;;;;5.45;4.95;;;;;;;38.53;33.12;99715.45;1652938;84;21474;-62
2021/07/31 09:12:13;;;;;;;6.22;5.62;;;;;;;38.78;31.46;99716.85;1696701;84;21141;-62
2021/07/31 09:14:45;;;;;;;6.05;4.78;;;;;;;38.87;31.39;99707.76;1687788;84;21522;-62
2021/07/31 09:17:25;;;;;;;5.65;5.05;;;;;;;39.00;31.81;99714.96;1696662;84;21078;-62
2021/07/31 09:19:53;;;;;;;5.03;4.53;;;;;;;39.10;32.14;99709.33;1688213;84;21608;-62
2021/07/31 09:22:20;;;;;;;9.53;5.00;;;;;;;39.09;29.77;99718.66;1678828;84;21107;-63
2021/07/31 09:25:10;;;;;;;6.00;4.97;;;;;;;38.77;29.63;99716.66;1696829;84;21118;-63
2021/07/31 09:27:36;;;;;;;;;;;;;;;38.36;30.48;99721.63;1699149;84;21011;-63
2021/07/31 09:30:05;;;;;;;5.75;5.25;;;;;;;38.17;31.13;99717.24;1696934;84;20177;-61
2021/07/31 09:32:40;;;;;;;5.70;5.05;;;;;;;38.12;31.00;99717.03;1695976;84;21129;-62
2021/07/31 09:35:21;;;;;;;9.93;4.97;;;;;;;37.76;31.69;99711.95;1696044;83;21059;-61
2021/07/31 09:37:50;;;;;;;6.08;4.62;;;;;;;37.72;31.72;99717.95;1687523;84;21196;-63
2021/07/31 09:40:30;;;;;;;5.87;5.28;;;;;;;37.93;30.97;99715.98;1696855;84;20869;-64
2021/07/31 09:42:56;;;;;;;5.80;4.58;;;;;;;38.17;31.20;99716.66;1695820;84;21450;-62
2021/07/31 09:45:32;;;;;;;6.15;4.85;;;;;;;38.36;30.04;99711.50;1679276;84;22063;-61
2021/07/31 09:48:02;;;;;;;8.50;4.92;;;;;;;37.84;30.29;99718.22;1697814;83;21014;-62
2021/07/31 09:50:46;;;;;;;5.60;4.87;;;;;;;37.34;31.54;99725.44;1696560;84;21138;-61
2021/07/31 09:53:25;;;;;;;7.83;5.75;;;;;;;37.42;32.45;99709.98;1697595;84;20955;-62
2021/07/31 09:55:58;;;;;;;7.42;5.10;;;;;;;37.95;32.46;99707.61;1692718;84;21493;-63
2021/07/31 09:58:26;;;;;;;6.65;4.83;;;;;;;38.53;31.80;99710.56;1697072;84;21516;-64
2021/07/31 10:00:53;;;;;;;8.05;4.92;;;;;;;39.05;30.76;99708.34;1697643;84;21004;-61
2021/07/31 10:03:20;;;;;;;4.70;4.20;;;;;;;39.48;30.49;99712.45;1700936;83;21074;-63
2021/07/31 10:05:48;;;;;;;6.87;4.10;;;;;;;39.58;28.62;99702.86;1707747;82;20956;-63
2021/07/31 10:08:15;;;;;;;4.45;3.90;;;;;;;39.61;28.22;99704.80;1703959;83;21043;-62
2021/07/31 10:10:42;;;;;;;4.85;4.35;;;;;;;39.48;28.64;99706.99;1707911;83;21038;-62
2021/07/31 10:13:08;;;;;;;5.10;4.60;;;;;;;39.16;28.65;99700.34;1707826;83;21075;-61
2021/07/31 10:15:35;;;;;;;5.58;4.92;;;;;;;38.62;29.32;99704.19;1682848;83;21096;-63
2021/07/31 10:18:10;;;;;;;6.10;4.80;;;;;;;38.34;30.46;99704.31;1706583;83;20951;-61
2021/07/31 10:20:37;;;;;;;6.55;4.83;;;;;;;38.52;29.75;99702.20;1707394;83;21746;-63
2021/07/31 10:23:07;;;;;;;4.17;3.77;;;;;;;38.83;30.02;99700.17;1698051;83;21559;-62
2021/07/31 10:25:32;;;;;;;5.60;4.78;;;;;;;39.30;29.37;99700.97;1706500;83;21058;-62
2021/07/31 10:28:23;;;;;;;5.10;4.60;;;;;;;39.45;28.23;99699.59;1706662;83;21126;-63
2021/07/31 10:30:51;;;;;;;5.20;4.25;;;;;;;39.16;28.79;99701.71;1707903;83;20955;-62
2021/07/31 10:33:42;;;;;;;5.65;4.85;;;;;;;38.89;29.11;99701.33;1707760;83;21529;-63
2021/07/31 10:36:31;;;;;;;6.15;4.72;;;;;;;38.67;29.29;99698.34;1706507;83;20916;-62
2021/07/31 10:39:01;;;;;;;8.90;5.00;;;;;;;38.37;30.40;99700.03;1699493;83;21008;-62
2021/07/31 10:41:57;;;;;;;5.22;4.72;;;;;;;38.23;30.61;99698.03;1708123;83;21112;-61
2021/07/31 10:44:24;;;;;;;6.55;5.00;;;;;;;38.19;30.14;99697.23;1706958;83;21058;-61
2021/07/31 10:47:24;;;;;;;6.10;5.58;;;;;;;37.64;30.29;99700.04;1707859;83;21606;-62
2021/07/31 10:49:53;;;;;;;5.78;5.17;;;;;;;36.90;31.33;99692.26;1689635;83;21573;-61
2021/07/31 10:53:10;;;;;;;5.70;5.10;;;;;;;36.25;32.99;99702.97;1704469;83;21063;-62
2021/07/31 10:55:45;;;;;;;6.03;4.95;;;;;;;35.88;33.25;99699.37;1707506;83;21542;-62
2021/07/31 10:58:15;;;;;;;5.67;5.17;;;;;;;35.38;33.80;99698.05;1707640;83;20996;-62
2021/07/31 11:01:21;;;;;;;8.35;5.42;;;;;;;35.08;34.96;99700.66;1706458;83;21054;-62
2021/07/31 11:03:48;;;;;;;5.92;5.42;;;;;;;34.81;35.55;99696.49;1667314;83;21039;-62
2021/07/31 11:06:14;;;;;;;7.50;5.05;;;;;;;34.82;36.39;99685.12;1697016;84;20909;-62
2021/07/31 11:08:53;;;;;;;6.53;5.72;;;;;;;35.17;35.78;99687.67;1669738;84;21151;-62
2021/07/31 11:11:25;;;;;;;5.53;4.92;;;;;;;35.54;35.39;99678.97;1697023;84;21221;-62
2021/07/31 11:13:54;;;;;;;5.42;4.92;;;;;;;35.92;34.40;99680.66;1697092;84;21562;-62
2021/07/31 11:16:22;;;;;;;6.15;5.55;;;;;;;36.12;34.74;99676.47;1696707;84;21035;-62
2021/07/31 11:18:58;;;;;;;5.95;5.17;;;;;;;36.39;33.69;99675.22;1696401;84;21047;-62
2021/07/31 11:21:26;;;;;;;5.53;4.97;;;;;;;36.64;33.05;99677.46;1696482;84;21163;-62
2021/07/31 11:23:59;;;;;;;;;;;;;;;37.03;32.87;99672.98;1699204;84;21070;-62
2021/07/31 11:26:50;;;;;;;5.83;5.22;;;;;;;37.52;31.43;99670.45;1696257;84;20125;-61
2021/07/31 11:29:24;;;;;;;5.03;4.53;;;;;;;37.43;31.63;99678.92;1696679;84;20961;-62
2021/07/31 11:32:12;;;;;;;6.15;4.67;;;;;;;37.09;30.74;99678.25;1696070;84;20960;-63
2021/07/31 11:34:41;;;;;;;5.55;5.05;;;;;;;36.73;30.47;99674.63;1696624;84;22115;-61